메인 페이지
METAR-TAF:

METAR-TAF

공항 :

Punta Arenas, 칠레

위도: 53-00S, 경도: 070-51W, 고도: 37m

현재 날씨관측

예보는 1 시간 7분 전, 14:00시(UTC)에 발표되었습니다.
12kt
온도 9°C
습도 53%
기압 1014 hPa
시정 10km 이상
고도 4000ft 상공 구름 조금
고도 10000ft 상공 구름 많음

METAR: SCCI 031400Z 26012KT 9999 FEW040 BKN100 09/00 Q1014 NOSIG

시각: 12:07 (15:07 UTC)

예보

예보는 5 시간 2분 전, 10:05시(UTC)에 발표되었습니다.
예보 대상 시간: 03일 12시부터 04일 12시까지 (UTC)
남남서8kt, 순간 최대 풍속 19kt
시정 10km 이상
고도 4000ft 상공 구름 조금
일시적
03일 12시부터 03일 16시까지 (UTC)
고도 2600ft 상공 구름 많음
전환 중
03일 18시부터 03일 20시까지 (UTC)
10kt
시정 10km 이상
1500m 미만 상공 구름 및 적란운 없음
전환 중
04일 02시부터 04일 04시까지 (UTC)
서북서6kt
전환 중
04일 10시부터 04일 12시까지 (UTC)
8kt

TAF: SCCI 031005Z 0312/0412 21008G19KT 9999 FEW040 TN08/0412Z TX13/0318Z TEMPO 0312/0316 BKN026 BECMG 0318/0320 17010KT CAVOK BECMG 0402/0404 30006KT BECMG 0410/0412 01008KT

4,000개 이상의 공항 관측 자료 및 예보 (METAR 및 TAF 보고).

지도상에서 검색 가능한 기상관측소가 노란 점과 빨간 점으로 표시되어 있습니다.

기상관측소 명을 보려면 표시 위로 마우스를 이동하세요.

날씨 관측과 예보를 보려면 클릭하세요.

지도 변경 : 확대하려면 엑스 표시가 있는 녹색 버튼, 축소하려면 빼기 표시가 있는 녹색 버튼, 다음 페이지의 지도를 보려면 녹색 화살표를 클릭하세요.


METAR-TAF: